Xin Da Yang Zhou — BPKE — position and weather

sailwx.info

Track history (hours):
 
Tides and Currents Weather Stations Pressure Air Temp Water Temp Dewpoint Dewpoint Depression Visibility Wind Speed Wind Dir Waves Ship Positions

Xin Da Yang Zhou

Last reported at 2017-Oct-03 08:49 UTC. Time now 2017-Oct-18 05:34 UTC.
Position N 36°26' E 014°36'.
Warning: this ship's position is 14 days out of date.

Length 335 m; draft 12.6 m.

Type: Ship (hazmat cat A). MMSI: 413173000.

Date/timePositionNaut miles runAvg speedWind from/ knotsBaromVisibWave heightAir tempDewpointWater temp
2017-Oct-03 08:49N 36°26' E 014°36'516.2
2017-Oct-03 08:30N 36°27' E 014°30'816.0
2017-Oct-03 08:00N 36°31' E 014°20'1016.1
2017-Oct-03 07:24N 36°32' E 014°09'  
2017-Sep-28 02:58N 39°43' W 027°56'916.7
2017-Sep-28 02:27N 39°44' W 028°07'816.9
2017-Sep-28 02:00N 39°45' W 028°17'817.0
2017-Sep-28 01:30N 39°46' W 028°28'816.9
2017-Sep-28 01:00N 39°47' W 028°39'917.0
2017-Sep-28 00:30N 39°48' W 028°50'816.7
2017-Sep-28 00:00N 39°49' W 029°01'817.0
2017-Sep-27 23:30N 39°50' W 029°12'816.8
2017-Sep-27 23:00N 39°51' W 029°22'816.7
2017-Sep-27 22:30N 39°52' W 029°33'  
Track history (hours):
 
Tides and Currents Weather Stations Pressure Air Temp Water Temp Dewpoint Dewpoint Depression Visibility Wind Speed Wind Dir Waves Ship Positions

Xin Da Yang Zhou

Last reported at 2017-Oct-03 08:49 UTC. Time now 2017-Oct-18 05:34 UTC.
Position N 36°26' E 014°36'.
Warning: this ship's position is 14 days out of date.

Length 335 m; draft 12.6 m.

Type: Ship (hazmat cat A). MMSI: 413173000.

Date/timePositionNaut miles runAvg speedWind from/ knotsBaromVisibWave heightAir tempDewpointWater temp
2017-Oct-03 08:49N 36°26' E 014°36'516.2
2017-Oct-03 08:30N 36°27' E 014°30'816.0
2017-Oct-03 08:00N 36°31' E 014°20'1016.1
2017-Oct-03 07:24N 36°32' E 014°09'  
2017-Sep-28 02:58N 39°43' W 027°56'916.7
2017-Sep-28 02:27N 39°44' W 028°07'816.9
2017-Sep-28 02:00N 39°45' W 028°17'817.0
2017-Sep-28 01:30N 39°46' W 028°28'816.9
2017-Sep-28 01:00N 39°47' W 028°39'917.0
2017-Sep-28 00:30N 39°48' W 028°50'816.7
2017-Sep-28 00:00N 39°49' W 029°01'817.0
2017-Sep-27 23:30N 39°50' W 029°12'816.8
2017-Sep-27 23:00N 39°51' W 029°22'816.7
2017-Sep-27 22:30N 39°52' W 029°33'  

Dump ship's entire track history